sensor_id;sensor_type;location;lat;lon;timestamp;P1;durP1;ratioP1;P2;durP2;ratioP2
18740;SDS011;9499;52.472;13.448;2023-03-30T00:00:01;3.67;;;3.37;;
18740;SDS011;9499;52.472;13.448;2023-03-30T00:02:42;2.93;;;2.63;;
18740;SDS011;9499;52.472;13.448;2023-03-30T00:05:09;2.67;;;2.47;;
18740;SDS011;9499;52.472;13.448;2023-03-30T00:07:37;8.70;;;3.00;;
18740;SDS011;9499;52.472;13.448;2023-03-30T00:10:07;3.07;;;2.77;;
18740;SDS011;9499;52.472;13.448;2023-03-30T00:12:35;6.27;;;4.80;;
18740;SDS011;9499;52.472;13.448;2023-03-30T00:15:02;2.47;;;2.27;;
18740;SDS011;9499;52.472;13.448;2023-03-30T00:17:29;2.73;;;2.30;;
18740;SDS011;9499;52.472;13.448;2023-03-30T00:19:57;3.47;;;3.17;;
18740;SDS011;9499;52.472;13.448;2023-03-30T00:22:26;2.93;;;2.63;;
18740;SDS011;9499;52.472;13.448;2023-03-30T00:24:52;6.90;;;4.30;;
18740;SDS011;9499;52.472;13.448;2023-03-30T00:27:20;3.87;;;3.57;;
18740;SDS011;9499;52.472;13.448;2023-03-30T00:29:47;2.47;;;2.27;;
18740;SDS011;9499;52.472;13.448;2023-03-30T00:32:13;2.67;;;2.47;;
18740;SDS011;9499;52.472;13.448;2023-03-30T00:34:40;4.23;;;2.77;;
18740;SDS011;9499;52.472;13.448;2023-03-30T00:37:07;3.07;;;2.87;;
18740;SDS011;9499;52.472;13.448;2023-03-30T00:39:33;3.43;;;3.20;;
18740;SDS011;9499;52.472;13.448;2023-03-30T00:42:00;3.67;;;2.90;;
18740;SDS011;9499;52.472;13.448;2023-03-30T00:47:31;4.30;;;3.90;;
18740;SDS011;9499;52.472;13.448;2023-03-30T00:49:57;4.23;;;2.63;;
18740;SDS011;9499;52.472;13.448;2023-03-30T00:52:24;4.00;;;3.40;;
18740;SDS011;9499;52.472;13.448;2023-03-30T00:54:52;2.50;;;2.30;;
18740;SDS011;9499;52.472;13.448;2023-03-30T00:57:21;2.33;;;2.03;;
18740;SDS011;9499;52.472;13.448;2023-03-30T00:59:51;3.30;;;2.83;;
18740;SDS011;9499;52.472;13.448;2023-03-30T01:02:20;3.90;;;3.50;;
18740;SDS011;9499;52.472;13.448;2023-03-30T01:04:47;2.93;;;2.60;;
18740;SDS011;9499;52.472;13.448;2023-03-30T01:07:17;3.57;;;3.00;;
18740;SDS011;9499;52.472;13.448;2023-03-30T01:09:48;2.47;;;2.27;;
18740;SDS011;9499;52.472;13.448;2023-03-30T01:12:15;2.77;;;2.57;;
18740;SDS011;9499;52.472;13.448;2023-03-30T01:14:42;3.63;;;2.47;;
18740;SDS011;9499;52.472;13.448;2023-03-30T01:17:10;3.07;;;2.80;;
18740;SDS011;9499;52.472;13.448;2023-03-30T01:19:57;2.80;;;2.60;;
18740;SDS011;9499;52.472;13.448;2023-03-30T01:22:51;2.87;;;2.67;;
18740;SDS011;9499;52.472;13.448;2023-03-30T01:25:51;3.50;;;3.20;;
18740;SDS011;9499;52.472;13.448;2023-03-30T01:28:34;3.03;;;2.80;;
18740;SDS011;9499;52.472;13.448;2023-03-30T01:34:12;2.57;;;2.37;;
18740;SDS011;9499;52.472;13.448;2023-03-30T01:37:14;8.33;;;3.43;;
18740;SDS011;9499;52.472;13.448;2023-03-30T01:39:54;3.93;;;3.00;;
18740;SDS011;9499;52.472;13.448;2023-03-30T01:42:26;3.20;;;2.50;;
18740;SDS011;9499;52.472;13.448;2023-03-30T01:45:02;3.40;;;3.13;;
18740;SDS011;9499;52.472;13.448;2023-03-30T01:47:35;7.03;;;2.07;;
18740;SDS011;9499;52.472;13.448;2023-03-30T01:50:07;2.50;;;2.30;;
18740;SDS011;9499;52.472;13.448;2023-03-30T01:52:37;3.00;;;2.77;;
18740;SDS011;9499;52.472;13.448;2023-03-30T01:55:10;2.73;;;2.53;;
18740;SDS011;9499;52.472;13.448;2023-03-30T01:57:41;5.40;;;3.37;;
18740;SDS011;9499;52.472;13.448;2023-03-30T02:00:13;3.43;;;2.60;;
18740;SDS011;9499;52.472;13.448;2023-03-30T02:02:45;6.97;;;3.07;;
18740;SDS011;9499;52.472;13.448;2023-03-30T02:05:14;4.10;;;3.67;;
18740;SDS011;9499;52.472;13.448;2023-03-30T02:07:44;3.10;;;2.57;;
18740;SDS011;9499;52.472;13.448;2023-03-30T02:10:16;4.87;;;3.80;;
18740;SDS011;9499;52.472;13.448;2023-03-30T02:12:45;2.57;;;2.37;;
18740;SDS011;9499;52.472;13.448;2023-03-30T02:15:12;3.30;;;3.10;;
18740;SDS011;9499;52.472;13.448;2023-03-30T02:17:40;3.00;;;2.60;;
18740;SDS011;9499;52.472;13.448;2023-03-30T02:20:09;4.43;;;3.17;;
18740;SDS011;9499;52.472;13.448;2023-03-30T02:22:37;2.90;;;2.70;;
18740;SDS011;9499;52.472;13.448;2023-03-30T02:25:05;3.40;;;2.23;;
18740;SDS011;9499;52.472;13.448;2023-03-30T02:27:33;3.60;;;3.23;;
18740;SDS011;9499;52.472;13.448;2023-03-30T02:30:02;2.77;;;2.43;;
18740;SDS011;9499;52.472;13.448;2023-03-30T02:32:32;5.40;;;2.80;;
18740;SDS011;9499;52.472;13.448;2023-03-30T02:35:16;4.80;;;3.60;;
18740;SDS011;9499;52.472;13.448;2023-03-30T02:38:00;3.50;;;3.20;;
18740;SDS011;9499;52.472;13.448;2023-03-30T02:40:40;8.17;;;3.30;;
18740;SDS011;9499;52.472;13.448;2023-03-30T02:43:20;2.93;;;2.37;;
18740;SDS011;9499;52.472;13.448;2023-03-30T02:45:51;7.00;;;2.90;;
18740;SDS011;9499;52.472;13.448;2023-03-30T02:48:23;2.60;;;2.40;;
18740;SDS011;9499;52.472;13.448;2023-03-30T02:51:02;3.87;;;3.10;;
18740;SDS011;9499;52.472;13.448;2023-03-30T02:53:40;3.93;;;2.90;;
18740;SDS011;9499;52.472;13.448;2023-03-30T02:56:11;3.73;;;3.43;;
18740;SDS011;9499;52.472;13.448;2023-03-30T02:58:45;3.40;;;2.80;;
18740;SDS011;9499;52.472;13.448;2023-03-30T03:01:16;3.90;;;2.73;;
18740;SDS011;9499;52.472;13.448;2023-03-30T03:03:47;3.67;;;3.27;;
18740;SDS011;9499;52.472;13.448;2023-03-30T03:06:16;2.40;;;2.20;;
18740;SDS011;9499;52.472;13.448;2023-03-30T03:08:44;3.70;;;3.30;;
18740;SDS011;9499;52.472;13.448;2023-03-30T03:11:12;2.60;;;2.40;;
18740;SDS011;9499;52.472;13.448;2023-03-30T03:13:38;3.13;;;2.83;;
18740;SDS011;9499;52.472;13.448;2023-03-30T03:16:08;3.90;;;3.13;;
18740;SDS011;9499;52.472;13.448;2023-03-30T03:18:36;4.70;;;3.10;;
18740;SDS011;9499;52.472;13.448;2023-03-30T03:21:04;4.30;;;3.77;;
18740;SDS011;9499;52.472;13.448;2023-03-30T03:23:30;4.47;;;4.17;;
18740;SDS011;9499;52.472;13.448;2023-03-30T03:25:57;5.20;;;3.30;;
18740;SDS011;9499;52.472;13.448;2023-03-30T03:28:24;2.77;;;2.50;;
18740;SDS011;9499;52.472;13.448;2023-03-30T03:30:51;3.20;;;2.90;;
18740;SDS011;9499;52.472;13.448;2023-03-30T03:33:19;4.17;;;3.10;;
18740;SDS011;9499;52.472;13.448;2023-03-30T03:35:46;3.03;;;2.77;;
18740;SDS011;9499;52.472;13.448;2023-03-30T03:38:17;9.13;;;3.10;;
18740;SDS011;9499;52.472;13.448;2023-03-30T03:40:47;3.17;;;2.80;;
18740;SDS011;9499;52.472;13.448;2023-03-30T03:43:14;2.97;;;2.63;;
18740;SDS011;9499;52.472;13.448;2023-03-30T03:45:41;5.03;;;4.50;;
18740;SDS011;9499;52.472;13.448;2023-03-30T03:48:09;2.70;;;2.50;;
18740;SDS011;9499;52.472;13.448;2023-03-30T03:50:37;3.77;;;3.07;;
18740;SDS011;9499;52.472;13.448;2023-03-30T03:53:03;3.27;;;2.97;;
18740;SDS011;9499;52.472;13.448;2023-03-30T03:55:30;3.27;;;2.50;;
18740;SDS011;9499;52.472;13.448;2023-03-30T03:57:58;2.77;;;2.57;;
18740;SDS011;9499;52.472;13.448;2023-03-30T04:00:25;4.43;;;3.00;;
18740;SDS011;9499;52.472;13.448;2023-03-30T04:02:51;5.03;;;3.40;;
18740;SDS011;9499;52.472;13.448;2023-03-30T04:05:18;4.40;;;3.33;;
18740;SDS011;9499;52.472;13.448;2023-03-30T04:07:46;8.40;;;5.00;;
18740;SDS011;9499;52.472;13.448;2023-03-30T04:10:12;3.80;;;3.50;;
18740;SDS011;9499;52.472;13.448;2023-03-30T04:12:40;3.60;;;3.30;;
18740;SDS011;9499;52.472;13.448;2023-03-30T04:15:06;5.23;;;2.70;;
18740;SDS011;9499;52.472;13.448;2023-03-30T04:17:34;3.93;;;3.10;;
18740;SDS011;9499;52.472;13.448;2023-03-30T04:20:01;3.00;;;2.77;;
18740;SDS011;9499;52.472;13.448;2023-03-30T04:22:30;4.43;;;3.00;;
18740;SDS011;9499;52.472;13.448;2023-03-30T04:24:58;2.70;;;2.50;;
18740;SDS011;9499;52.472;13.448;2023-03-30T04:27:25;2.80;;;2.60;;
18740;SDS011;9499;52.472;13.448;2023-03-30T04:29:52;3.80;;;3.40;;
18740;SDS011;9499;52.472;13.448;2023-03-30T04:32:21;2.57;;;2.37;;
18740;SDS011;9499;52.472;13.448;2023-03-30T04:34:48;7.10;;;3.70;;
18740;SDS011;9499;52.472;13.448;2023-03-30T04:37:18;3.00;;;2.77;;
18740;SDS011;9499;52.472;13.448;2023-03-30T04:39:47;2.53;;;2.27;;
18740;SDS011;9499;52.472;13.448;2023-03-30T04:42:15;3.30;;;2.80;;
18740;SDS011;9499;52.472;13.448;2023-03-30T04:44:44;3.07;;;2.40;;
18740;SDS011;9499;52.472;13.448;2023-03-30T04:47:10;3.47;;;2.23;;
18740;SDS011;9499;52.472;13.448;2023-03-30T04:49:37;3.37;;;2.30;;
18740;SDS011;9499;52.472;13.448;2023-03-30T04:52:03;3.10;;;2.90;;
18740;SDS011;9499;52.472;13.448;2023-03-30T04:54:30;4.13;;;3.17;;
18740;SDS011;9499;52.472;13.448;2023-03-30T04:56:56;3.27;;;3.07;;
18740;SDS011;9499;52.472;13.448;2023-03-30T04:59:24;4.03;;;3.67;;
18740;SDS011;9499;52.472;13.448;2023-03-30T05:01:51;7.63;;;3.20;;
18740;SDS011;9499;52.472;13.448;2023-03-30T05:04:17;4.10;;;3.80;;
18740;SDS011;9499;52.472;13.448;2023-03-30T05:06:44;3.10;;;2.77;;
18740;SDS011;9499;52.472;13.448;2023-03-30T05:09:13;6.30;;;3.13;;
18740;SDS011;9499;52.472;13.448;2023-03-30T05:11:40;3.20;;;2.67;;
18740;SDS011;9499;52.472;13.448;2023-03-30T05:14:06;2.43;;;2.13;;
18740;SDS011;9499;52.472;13.448;2023-03-30T05:16:55;2.73;;;2.53;;
18740;SDS011;9499;52.472;13.448;2023-03-30T05:19:23;3.90;;;2.80;;
18740;SDS011;9499;52.472;13.448;2023-03-30T05:21:50;3.07;;;2.77;;
18740;SDS011;9499;52.472;13.448;2023-03-30T05:24:16;2.83;;;2.10;;
18740;SDS011;9499;52.472;13.448;2023-03-30T05:26:43;2.57;;;2.37;;
18740;SDS011;9499;52.472;13.448;2023-03-30T05:29:09;8.47;;;3.07;;
18740;SDS011;9499;52.472;13.448;2023-03-30T05:31:36;1.93;;;1.80;;
18740;SDS011;9499;52.472;13.448;2023-03-30T05:34:04;2.20;;;2.07;;
18740;SDS011;9499;52.472;13.448;2023-03-30T05:36:31;3.33;;;3.13;;
18740;SDS011;9499;52.472;13.448;2023-03-30T05:38:59;5.07;;;2.47;;
18740;SDS011;9499;52.472;13.448;2023-03-30T05:41:25;2.37;;;2.13;;
18740;SDS011;9499;52.472;13.448;2023-03-30T05:43:52;3.73;;;3.40;;
18740;SDS011;9499;52.472;13.448;2023-03-30T05:46:19;7.97;;;2.10;;
18740;SDS011;9499;52.472;13.448;2023-03-30T05:48:46;1.80;;;1.70;;
18740;SDS011;9499;52.472;13.448;2023-03-30T05:51:14;3.27;;;2.60;;
18740;SDS011;9499;52.472;13.448;2023-03-30T05:53:41;2.77;;;2.50;;
18740;SDS011;9499;52.472;13.448;2023-03-30T05:56:09;5.93;;;3.13;;
18740;SDS011;9499;52.472;13.448;2023-03-30T05:58:35;2.80;;;2.30;;
18740;SDS011;9499;52.472;13.448;2023-03-30T06:01:02;2.90;;;2.10;;
18740;SDS011;9499;52.472;13.448;2023-03-30T06:03:29;4.63;;;3.10;;
18740;SDS011;9499;52.472;13.448;2023-03-30T06:05:56;4.40;;;2.63;;
18740;SDS011;9499;52.472;13.448;2023-03-30T06:08:24;3.30;;;2.47;;
18740;SDS011;9499;52.472;13.448;2023-03-30T06:13:20;8.97;;;3.63;;
18740;SDS011;9499;52.472;13.448;2023-03-30T06:15:46;3.03;;;2.73;;
18740;SDS011;9499;52.472;13.448;2023-03-30T06:18:13;3.00;;;2.70;;
18740;SDS011;9499;52.472;13.448;2023-03-30T06:20:40;3.40;;;2.93;;
18740;SDS011;9499;52.472;13.448;2023-03-30T06:23:06;2.63;;;2.43;;
18740;SDS011;9499;52.472;13.448;2023-03-30T06:25:34;3.10;;;2.13;;
18740;SDS011;9499;52.472;13.448;2023-03-30T06:28:01;2.87;;;2.60;;
18740;SDS011;9499;52.472;13.448;2023-03-30T06:30:28;5.17;;;2.77;;
18740;SDS011;9499;52.472;13.448;2023-03-30T06:32:54;4.07;;;2.50;;
18740;SDS011;9499;52.472;13.448;2023-03-30T06:35:21;2.10;;;2.00;;
18740;SDS011;9499;52.472;13.448;2023-03-30T06:37:48;3.87;;;2.73;;
18740;SDS011;9499;52.472;13.448;2023-03-30T06:40:14;3.83;;;2.87;;
18740;SDS011;9499;52.472;13.448;2023-03-30T06:42:42;2.43;;;2.23;;
18740;SDS011;9499;52.472;13.448;2023-03-30T06:45:09;1.87;;;1.77;;
18740;SDS011;9499;52.472;13.448;2023-03-30T06:47:36;3.67;;;3.33;;
18740;SDS011;9499;52.472;13.448;2023-03-30T06:50:03;2.50;;;2.30;;
18740;SDS011;9499;52.472;13.448;2023-03-30T06:52:32;4.93;;;2.40;;
18740;SDS011;9499;52.472;13.448;2023-03-30T06:54:59;3.30;;;2.63;;
18740;SDS011;9499;52.472;13.448;2023-03-30T06:57:25;4.37;;;2.47;;
18740;SDS011;9499;52.472;13.448;2023-03-30T06:59:53;2.17;;;2.00;;
18740;SDS011;9499;52.472;13.448;2023-03-30T07:02:20;4.10;;;3.70;;
18740;SDS011;9499;52.472;13.448;2023-03-30T07:04:47;2.90;;;2.70;;
18740;SDS011;9499;52.472;13.448;2023-03-30T07:07:15;2.90;;;2.37;;
18740;SDS011;9499;52.472;13.448;2023-03-30T07:09:42;3.13;;;2.63;;
18740;SDS011;9499;52.472;13.448;2023-03-30T07:12:09;3.60;;;3.30;;
18740;SDS011;9499;52.472;13.448;2023-03-30T07:14:35;5.47;;;2.83;;
18740;SDS011;9499;52.472;13.448;2023-03-30T07:17:03;2.63;;;2.43;;
18740;SDS011;9499;52.472;13.448;2023-03-30T07:19:31;3.43;;;2.40;;
18740;SDS011;9499;52.472;13.448;2023-03-30T07:21:57;2.00;;;1.80;;
18740;SDS011;9499;52.472;13.448;2023-03-30T07:24:24;2.83;;;2.60;;
18740;SDS011;9499;52.472;13.448;2023-03-30T07:26:51;2.40;;;2.20;;
18740;SDS011;9499;52.472;13.448;2023-03-30T07:29:18;2.27;;;2.17;;
18740;SDS011;9499;52.472;13.448;2023-03-30T07:31:44;2.20;;;2.03;;
18740;SDS011;9499;52.472;13.448;2023-03-30T07:34:13;2.97;;;2.20;;
18740;SDS011;9499;52.472;13.448;2023-03-30T07:36:41;2.00;;;1.80;;
18740;SDS011;9499;52.472;13.448;2023-03-30T07:39:07;3.23;;;1.73;;
18740;SDS011;9499;52.472;13.448;2023-03-30T07:41:35;2.03;;;1.93;;
18740;SDS011;9499;52.472;13.448;2023-03-30T07:44:01;2.93;;;2.50;;
18740;SDS011;9499;52.472;13.448;2023-03-30T07:46:28;1.93;;;1.60;;
18740;SDS011;9499;52.472;13.448;2023-03-30T07:48:55;2.50;;;2.30;;
18740;SDS011;9499;52.472;13.448;2023-03-30T07:51:22;5.00;;;1.70;;
18740;SDS011;9499;52.472;13.448;2023-03-30T07:53:49;5.43;;;2.43;;
18740;SDS011;9499;52.472;13.448;2023-03-30T07:56:15;3.00;;;2.63;;
18740;SDS011;9499;52.472;13.448;2023-03-30T07:58:42;2.20;;;2.00;;
18740;SDS011;9499;52.472;13.448;2023-03-30T08:01:09;2.40;;;2.20;;
18740;SDS011;9499;52.472;13.448;2023-03-30T08:03:37;1.90;;;1.80;;
18740;SDS011;9499;52.472;13.448;2023-03-30T08:06:03;2.30;;;2.13;;
18740;SDS011;9499;52.472;13.448;2023-03-30T08:08:32;2.53;;;2.33;;
18740;SDS011;9499;52.472;13.448;2023-03-30T08:10:59;3.53;;;2.47;;
18740;SDS011;9499;52.472;13.448;2023-03-30T08:13:26;5.63;;;2.23;;
18740;SDS011;9499;52.472;13.448;2023-03-30T08:15:52;1.80;;;1.60;;
18740;SDS011;9499;52.472;13.448;2023-03-30T08:18:19;1.77;;;1.67;;
18740;SDS011;9499;52.472;13.448;2023-03-30T08:20:48;2.40;;;2.20;;
18740;SDS011;9499;52.472;13.448;2023-03-30T08:23:16;4.30;;;2.30;;
18740;SDS011;9499;52.472;13.448;2023-03-30T08:25:45;2.10;;;1.70;;
18740;SDS011;9499;52.472;13.448;2023-03-30T08:28:15;2.07;;;1.57;;
18740;SDS011;9499;52.472;13.448;2023-03-30T08:30:41;2.20;;;1.67;;
18740;SDS011;9499;52.472;13.448;2023-03-30T08:33:08;2.43;;;1.60;;
18740;SDS011;9499;52.472;13.448;2023-03-30T08:35:34;1.67;;;1.50;;
18740;SDS011;9499;52.472;13.448;2023-03-30T08:38:01;1.50;;;1.30;;
18740;SDS011;9499;52.472;13.448;2023-03-30T08:40:27;4.63;;;2.30;;
18740;SDS011;9499;52.472;13.448;2023-03-30T08:43:00;2.77;;;1.67;;
18740;SDS011;9499;52.472;13.448;2023-03-30T08:45:34;2.80;;;1.63;;
18740;SDS011;9499;52.472;13.448;2023-03-30T08:48:02;1.83;;;1.30;;
18740;SDS011;9499;52.472;13.448;2023-03-30T08:50:32;2.07;;;1.80;;
18740;SDS011;9499;52.472;13.448;2023-03-30T08:53:00;9.03;;;2.00;;
18740;SDS011;9499;52.472;13.448;2023-03-30T08:55:29;2.27;;;1.93;;
18740;SDS011;9499;52.472;13.448;2023-03-30T08:58:02;2.20;;;1.77;;
18740;SDS011;9499;52.472;13.448;2023-03-30T09:00:35;2.20;;;1.40;;
18740;SDS011;9499;52.472;13.448;2023-03-30T09:03:09;5.73;;;1.50;;
18740;SDS011;9499;52.472;13.448;2023-03-30T09:05:42;1.80;;;1.40;;
18740;SDS011;9499;52.472;13.448;2023-03-30T09:08:16;2.10;;;1.73;;
18740;SDS011;9499;52.472;13.448;2023-03-30T09:10:46;1.80;;;1.43;;
18740;SDS011;9499;52.472;13.448;2023-03-30T09:13:19;1.57;;;1.20;;
18740;SDS011;9499;52.472;13.448;2023-03-30T09:15:48;1.97;;;1.67;;
18740;SDS011;9499;52.472;13.448;2023-03-30T09:18:21;2.73;;;1.70;;
18740;SDS011;9499;52.472;13.448;2023-03-30T09:20:53;2.13;;;1.50;;
18740;SDS011;9499;52.472;13.448;2023-03-30T09:23:22;4.20;;;1.60;;
18740;SDS011;9499;52.472;13.448;2023-03-30T09:25:49;4.93;;;1.37;;
18740;SDS011;9499;52.472;13.448;2023-03-30T09:28:25;2.30;;;1.70;;
18740;SDS011;9499;52.472;13.448;2023-03-30T09:30:58;1.73;;;1.33;;
18740;SDS011;9499;52.472;13.448;2023-03-30T09:33:29;1.50;;;1.00;;
18740;SDS011;9499;52.472;13.448;2023-03-30T09:36:06;1.60;;;1.20;;
18740;SDS011;9499;52.472;13.448;2023-03-30T09:38:38;5.00;;;1.60;;
18740;SDS011;9499;52.472;13.448;2023-03-30T09:41:10;3.67;;;1.57;;
18740;SDS011;9499;52.472;13.448;2023-03-30T09:43:58;1.70;;;1.20;;
18740;SDS011;9499;52.472;13.448;2023-03-30T09:46:25;2.13;;;1.40;;
18740;SDS011;9499;52.472;13.448;2023-03-30T09:48:52;1.50;;;1.07;;
18740;SDS011;9499;52.472;13.448;2023-03-30T09:51:20;1.70;;;1.33;;
18740;SDS011;9499;52.472;13.448;2023-03-30T09:53:50;2.53;;;1.30;;
18740;SDS011;9499;52.472;13.448;2023-03-30T09:56:19;2.70;;;1.63;;
18740;SDS011;9499;52.472;13.448;2023-03-30T09:58:51;1.87;;;1.30;;
18740;SDS011;9499;52.472;13.448;2023-03-30T10:01:19;1.90;;;1.23;;
18740;SDS011;9499;52.472;13.448;2023-03-30T10:06:30;2.33;;;1.20;;
18740;SDS011;9499;52.472;13.448;2023-03-30T10:09:03;3.23;;;1.57;;
18740;SDS011;9499;52.472;13.448;2023-03-30T10:11:33;1.87;;;1.20;;
18740;SDS011;9499;52.472;13.448;2023-03-30T10:14:02;3.70;;;1.40;;
18740;SDS011;9499;52.472;13.448;2023-03-30T10:16:32;2.93;;;1.60;;
18740;SDS011;9499;52.472;13.448;2023-03-30T10:19:01;2.00;;;1.60;;
18740;SDS011;9499;52.472;13.448;2023-03-30T10:21:30;2.27;;;1.50;;
18740;SDS011;9499;52.472;13.448;2023-03-30T10:24:02;1.80;;;1.37;;
18740;SDS011;9499;52.472;13.448;2023-03-30T10:26:34;2.70;;;1.47;;
18740;SDS011;9499;52.472;13.448;2023-03-30T10:29:02;2.00;;;1.43;;
18740;SDS011;9499;52.472;13.448;2023-03-30T10:31:33;2.17;;;1.47;;
18740;SDS011;9499;52.472;13.448;2023-03-30T10:34:02;2.33;;;2.03;;
18740;SDS011;9499;52.472;13.448;2023-03-30T10:36:30;1.70;;;1.30;;
18740;SDS011;9499;52.472;13.448;2023-03-30T10:39:02;3.00;;;2.07;;
18740;SDS011;9499;52.472;13.448;2023-03-30T10:41:33;1.70;;;1.20;;
18740;SDS011;9499;52.472;13.448;2023-03-30T10:44:14;3.20;;;2.33;;
18740;SDS011;9499;52.472;13.448;2023-03-30T10:46:46;2.50;;;2.00;;
18740;SDS011;9499;52.472;13.448;2023-03-30T10:49:16;3.00;;;1.60;;
18740;SDS011;9499;52.472;13.448;2023-03-30T10:51:57;2.07;;;1.50;;
18740;SDS011;9499;52.472;13.448;2023-03-30T10:54:30;1.67;;;1.43;;
18740;SDS011;9499;52.472;13.448;2023-03-30T10:57:01;2.00;;;1.30;;
18740;SDS011;9499;52.472;13.448;2023-03-30T11:02:32;1.40;;;1.10;;
18740;SDS011;9499;52.472;13.448;2023-03-30T11:05:09;2.40;;;1.60;;
18740;SDS011;9499;52.472;13.448;2023-03-30T11:07:41;4.57;;;1.70;;
18740;SDS011;9499;52.472;13.448;2023-03-30T11:10:13;2.97;;;1.40;;
18740;SDS011;9499;52.472;13.448;2023-03-30T11:12:43;2.13;;;1.10;;
18740;SDS011;9499;52.472;13.448;2023-03-30T11:15:14;1.50;;;1.10;;
18740;SDS011;9499;52.472;13.448;2023-03-30T11:17:49;5.33;;;1.67;;
18740;SDS011;9499;52.472;13.448;2023-03-30T11:20:23;3.10;;;1.43;;
18740;SDS011;9499;52.472;13.448;2023-03-30T11:22:54;2.00;;;1.43;;
18740;SDS011;9499;52.472;13.448;2023-03-30T11:25:26;3.30;;;1.80;;
18740;SDS011;9499;52.472;13.448;2023-03-30T11:27:56;2.17;;;1.90;;
18740;SDS011;9499;52.472;13.448;2023-03-30T11:30:29;3.07;;;1.60;;
18740;SDS011;9499;52.472;13.448;2023-03-30T11:33:00;2.17;;;1.87;;
18740;SDS011;9499;52.472;13.448;2023-03-30T11:35:38;1.90;;;1.30;;
18740;SDS011;9499;52.472;13.448;2023-03-30T11:38:11;1.93;;;1.30;;
18740;SDS011;9499;52.472;13.448;2023-03-30T11:40:41;1.97;;;1.10;;
18740;SDS011;9499;52.472;13.448;2023-03-30T11:43:10;1.90;;;1.13;;
18740;SDS011;9499;52.472;13.448;2023-03-30T11:45:40;2.10;;;1.80;;
18740;SDS011;9499;52.472;13.448;2023-03-30T11:51:30;1.70;;;1.20;;
18740;SDS011;9499;52.472;13.448;2023-03-30T11:54:14;2.07;;;1.57;;
18740;SDS011;9499;52.472;13.448;2023-03-30T11:57:01;1.50;;;0.80;;
18740;SDS011;9499;52.472;13.448;2023-03-30T11:59:36;2.10;;;1.60;;
18740;SDS011;9499;52.472;13.448;2023-03-30T12:02:12;2.00;;;1.53;;
18740;SDS011;9499;52.472;13.448;2023-03-30T12:04:47;1.70;;;1.10;;
18740;SDS011;9499;52.472;13.448;2023-03-30T12:07:22;1.70;;;1.10;;
18740;SDS011;9499;52.472;13.448;2023-03-30T12:09:55;2.60;;;1.43;;
18740;SDS011;9499;52.472;13.448;2023-03-30T12:12:29;2.17;;;1.27;;
18740;SDS011;9499;52.472;13.448;2023-03-30T12:15:00;1.70;;;1.20;;
18740;SDS011;9499;52.472;13.448;2023-03-30T12:17:41;4.83;;;1.20;;
18740;SDS011;9499;52.472;13.448;2023-03-30T12:20:18;1.90;;;1.20;;
18740;SDS011;9499;52.472;13.448;2023-03-30T12:22:54;1.90;;;1.00;;
18740;SDS011;9499;52.472;13.448;2023-03-30T12:25:26;1.80;;;1.13;;
18740;SDS011;9499;52.472;13.448;2023-03-30T12:27:59;4.70;;;1.73;;
18740;SDS011;9499;52.472;13.448;2023-03-30T12:30:40;2.80;;;0.93;;
18740;SDS011;9499;52.472;13.448;2023-03-30T12:33:12;3.97;;;1.20;;
18740;SDS011;9499;52.472;13.448;2023-03-30T12:36:00;2.03;;;1.40;;
18740;SDS011;9499;52.472;13.448;2023-03-30T12:38:27;3.13;;;2.00;;
18740;SDS011;9499;52.472;13.448;2023-03-30T12:41:06;1.70;;;0.80;;
18740;SDS011;9499;52.472;13.448;2023-03-30T12:43:46;6.30;;;1.37;;
18740;SDS011;9499;52.472;13.448;2023-03-30T12:46:27;3.07;;;1.30;;
18740;SDS011;9499;52.472;13.448;2023-03-30T12:49:00;1.60;;;0.90;;
18740;SDS011;9499;52.472;13.448;2023-03-30T12:51:44;1.83;;;1.10;;
18740;SDS011;9499;52.472;13.448;2023-03-30T12:54:29;4.90;;;1.23;;
18740;SDS011;9499;52.472;13.448;2023-03-30T12:57:09;1.50;;;0.80;;
18740;SDS011;9499;52.472;13.448;2023-03-30T12:59:57;3.30;;;1.40;;
18740;SDS011;9499;52.472;13.448;2023-03-30T13:05:28;2.30;;;1.10;;
18740;SDS011;9499;52.472;13.448;2023-03-30T13:07:57;1.97;;;1.17;;
18740;SDS011;9499;52.472;13.448;2023-03-30T13:10:33;1.60;;;0.97;;
18740;SDS011;9499;52.472;13.448;2023-03-30T13:13:15;2.00;;;1.30;;
18740;SDS011;9499;52.472;13.448;2023-03-30T13:15:45;4.70;;;1.27;;
18740;SDS011;9499;52.472;13.448;2023-03-30T13:18:30;2.90;;;1.23;;
18740;SDS011;9499;52.472;13.448;2023-03-30T13:21:04;2.43;;;2.00;;
18740;SDS011;9499;52.472;13.448;2023-03-30T13:23:42;1.40;;;0.70;;
18740;SDS011;9499;52.472;13.448;2023-03-30T13:26:23;1.77;;;1.00;;
18740;SDS011;9499;52.472;13.448;2023-03-30T13:28:55;2.97;;;1.67;;
18740;SDS011;9499;52.472;13.448;2023-03-30T13:31:40;2.23;;;1.10;;
18740;SDS011;9499;52.472;13.448;2023-03-30T13:34:20;4.63;;;2.03;;
18740;SDS011;9499;52.472;13.448;2023-03-30T13:36:54;1.60;;;1.07;;
18740;SDS011;9499;52.472;13.448;2023-03-30T13:39:27;3.87;;;2.23;;
18740;SDS011;9499;52.472;13.448;2023-03-30T13:42:03;2.73;;;1.00;;
18740;SDS011;9499;52.472;13.448;2023-03-30T13:44:47;2.30;;;1.63;;
18740;SDS011;9499;52.472;13.448;2023-03-30T13:47:25;2.70;;;1.20;;
18740;SDS011;9499;52.472;13.448;2023-03-30T13:50:03;2.47;;;1.27;;
18740;SDS011;9499;52.472;13.448;2023-03-30T13:52:38;2.83;;;1.37;;
18740;SDS011;9499;52.472;13.448;2023-03-30T13:55:13;1.70;;;1.00;;
18740;SDS011;9499;52.472;13.448;2023-03-30T13:57:42;2.10;;;1.37;;
18740;SDS011;9499;52.472;13.448;2023-03-30T14:00:20;5.00;;;1.50;;
18740;SDS011;9499;52.472;13.448;2023-03-30T14:02:57;1.90;;;0.80;;
18740;SDS011;9499;52.472;13.448;2023-03-30T14:05:24;1.93;;;1.00;;
18740;SDS011;9499;52.472;13.448;2023-03-30T14:07:54;3.00;;;1.63;;
18740;SDS011;9499;52.472;13.448;2023-03-30T14:10:22;1.60;;;1.00;;
18740;SDS011;9499;52.472;13.448;2023-03-30T14:12:50;1.60;;;1.03;;
18740;SDS011;9499;52.472;13.448;2023-03-30T14:15:20;4.03;;;2.20;;
18740;SDS011;9499;52.472;13.448;2023-03-30T14:17:49;1.70;;;1.30;;
18740;SDS011;9499;52.472;13.448;2023-03-30T14:20:19;1.60;;;1.20;;
18740;SDS011;9499;52.472;13.448;2023-03-30T14:22:55;1.40;;;1.00;;
18740;SDS011;9499;52.472;13.448;2023-03-30T14:25:26;2.40;;;2.20;;
18740;SDS011;9499;52.472;13.448;2023-03-30T14:27:55;2.13;;;1.33;;
18740;SDS011;9499;52.472;13.448;2023-03-30T14:30:23;1.60;;;1.50;;
18740;SDS011;9499;52.472;13.448;2023-03-30T14:33:03;1.40;;;1.23;;
18740;SDS011;9499;52.472;13.448;2023-03-30T14:35:31;1.77;;;1.37;;
18740;SDS011;9499;52.472;13.448;2023-03-30T14:37:58;3.73;;;1.23;;
18740;SDS011;9499;52.472;13.448;2023-03-30T14:40:27;3.40;;;1.80;;
18740;SDS011;9499;52.472;13.448;2023-03-30T14:42:54;4.23;;;1.80;;
18740;SDS011;9499;52.472;13.448;2023-03-30T14:45:20;1.67;;;1.57;;
18740;SDS011;9499;52.472;13.448;2023-03-30T14:47:47;1.70;;;1.50;;
18740;SDS011;9499;52.472;13.448;2023-03-30T14:50:15;2.17;;;1.90;;
18740;SDS011;9499;52.472;13.448;2023-03-30T14:52:42;1.40;;;1.20;;
18740;SDS011;9499;52.472;13.448;2023-03-30T14:55:11;1.50;;;1.30;;
18740;SDS011;9499;52.472;13.448;2023-03-30T14:57:40;1.40;;;1.03;;
18740;SDS011;9499;52.472;13.448;2023-03-30T15:00:11;1.77;;;1.67;;
18740;SDS011;9499;52.472;13.448;2023-03-30T15:02:44;2.93;;;1.20;;
18740;SDS011;9499;52.472;13.448;2023-03-30T15:05:13;1.40;;;1.30;;
18740;SDS011;9499;52.472;13.448;2023-03-30T15:07:41;2.03;;;1.43;;
18740;SDS011;9499;52.472;13.448;2023-03-30T15:10:16;1.73;;;1.37;;
18740;SDS011;9499;52.472;13.448;2023-03-30T15:12:48;1.33;;;1.23;;
18740;SDS011;9499;52.472;13.448;2023-03-30T15:15:15;2.47;;;1.40;;
18740;SDS011;9499;52.472;13.448;2023-03-30T15:17:47;1.73;;;1.63;;
18740;SDS011;9499;52.472;13.448;2023-03-30T15:20:15;1.80;;;1.30;;
18740;SDS011;9499;52.472;13.448;2023-03-30T15:22:43;1.63;;;1.53;;
18740;SDS011;9499;52.472;13.448;2023-03-30T15:25:12;1.80;;;1.70;;
18740;SDS011;9499;52.472;13.448;2023-03-30T15:27:41;2.00;;;1.80;;